Time;durP1;ratioP1;P1;durP2;ratioP2;P2;SDS_P1;SDS_P2;PMS_P1;PMS_P2;Temp;Humidity;BMP_temperature;BMP_pressure;BME280_temperature;BME280_humidity;BME280_pressure;Samples;Min_cycle;Max_cycle;Signal;HPM_P1;HPM_P2
2021/11/13 00:00:21;;;;;;;35.25;22.00;;;3.00;99.90;;;;;;5052253;28;20041;-57
2021/11/13 00:02:48;;;;;;;33.88;21.33;;;3.10;99.90;;;;;;5054883;28;20036;-57
2021/11/13 00:05:14;;;;;;;35.90;22.70;;;3.10;99.90;;;;;;5055054;28;20037;-60
2021/11/13 00:07:40;;;;;;;34.75;22.52;;;3.20;99.90;;;;;;5055275;28;20112;-56
2021/11/13 00:10:07;;;;;;;34.15;21.63;;;3.20;99.90;;;;;;5053438;28;20159;-57
2021/11/13 00:12:32;;;;;;;36.38;22.13;;;3.20;99.90;;;;;;5053390;28;20032;-54
2021/11/13 00:15:03;;;;;;;36.40;23.10;;;3.20;99.90;;;;;;5053013;28;20337;-55
2021/11/13 00:17:29;;;;;;;37.08;23.83;;;3.30;99.90;;;;;;5053183;28;20037;-59
2021/11/13 00:19:55;;;;;;;34.50;21.60;;;3.30;99.90;;;;;;5052493;28;20044;-58
2021/11/13 00:22:20;;;;;;;32.28;21.30;;;3.40;99.90;;;;;;5052479;28;20045;-56
2021/11/13 00:24:46;;;;;;;34.67;22.13;;;3.40;99.90;;;;;;5055627;28;20083;-59
2021/11/13 00:27:11;;;;;;;37.17;23.10;;;3.40;99.90;;;;;;5055736;28;20039;-58
2021/11/13 00:29:37;;;;;;;35.80;21.48;;;3.40;99.90;;;;;;5056393;28;20079;-56
2021/11/13 00:32:03;;;;;;;34.80;22.45;;;3.30;99.90;;;;;;5057044;28;20060;-57
2021/11/13 00:34:30;;;;;;;32.83;21.08;;;3.40;99.90;;;;;;5056915;28;20040;-54
2021/11/13 00:36:55;;;;;;;34.58;21.70;;;3.50;99.90;;;;;;5042007;28;20041;-59
2021/11/13 00:39:21;;;;;;;30.75;21.10;;;3.50;99.90;;;;;;5036072;28;20050;-59
2021/11/13 00:41:47;;;;;;;35.95;22.65;;;3.60;99.90;;;;;;5036137;28;20141;-57
2021/11/13 00:44:13;;;;;;;96.72;51.55;;;3.60;99.90;;;;;;5036334;28;20121;-57
2021/11/13 00:46:39;;;;;;;130.38;74.53;;;3.70;99.90;;;;;;5047060;28;20033;-56
2021/11/13 00:49:05;;;;;;;133.13;73.90;;;3.70;99.90;;;;;;5054671;28;20033;-56
2021/11/13 00:51:31;;;;;;;130.63;75.32;;;3.60;99.90;;;;;;5054081;28;20071;-58
2021/11/13 00:53:57;;;;;;;128.88;74.22;;;3.60;99.90;;;;;;5052734;28;20036;-57
2021/11/13 00:56:23;;;;;;;130.57;80.18;;;3.60;99.90;;;;;;5054931;28;20029;-58
2021/11/13 00:58:48;;;;;;;118.38;72.60;;;3.60;99.90;;;;;;5054758;28;20036;-60
2021/11/13 01:01:14;;;;;;;63.55;42.25;;;3.70;99.90;;;;;;5053302;28;20024;-62
2021/11/13 01:03:40;;;;;;;41.65;26.52;;;3.80;99.90;;;;;;5045897;28;20395;-56
2021/11/13 01:06:06;;;;;;;35.30;22.52;;;3.80;99.90;;;;;;5052382;28;20033;-53
2021/11/13 01:08:31;;;;;;;30.08;20.88;;;3.80;99.90;;;;;;5053091;28;20477;-62
2021/11/13 01:10:57;;;;;;;30.92;20.27;;;3.80;99.90;;;;;;5036251;28;20037;-58
2021/11/13 01:13:23;;;;;;;31.20;21.02;;;3.70;99.90;;;;;;5055409;28;20021;-60
2021/11/13 01:15:49;;;;;;;33.67;21.48;;;3.80;99.90;;;;;;5052033;28;20037;-61
2021/11/13 01:18:15;;;;;;;33.42;23.38;;;3.70;99.90;;;;;;5043417;28;20163;-56
2021/11/13 01:20:41;;;;;;;33.22;21.63;;;3.70;99.90;;;;;;5050537;28;20029;-57
2021/11/13 01:23:06;;;;;;;30.30;19.75;;;3.70;99.90;;;;;;5050370;28;20024;-57
2021/11/13 01:25:33;;;;;;;31.65;20.90;;;3.70;99.90;;;;;;5055766;28;20431;-56
2021/11/13 01:27:58;;;;;;;28.48;20.88;;;3.70;99.90;;;;;;5056110;28;20029;-58
2021/11/13 01:30:24;;;;;;;30.35;19.85;;;3.80;99.90;;;;;;5039010;28;20072;-55
2021/11/13 01:32:50;;;;;;;32.20;21.40;;;3.70;99.90;;;;;;5050802;28;20112;-57
2021/11/13 01:35:18;;;;;;;28.63;18.95;;;3.70;99.90;;;;;;5046303;28;20026;-57
2021/11/13 01:37:45;;;;;;;31.05;19.30;;;3.70;99.90;;;;;;5054541;28;20365;-58
2021/11/13 01:40:17;;;;;;;28.33;19.02;;;3.70;99.90;;;;;;5048914;28;20013;-57
2021/11/13 01:42:44;;;;;;;29.50;20.42;;;3.70;99.90;;;;;;5058324;28;20397;-58
2021/11/13 01:45:11;;;;;;;29.20;20.02;;;3.70;99.90;;;;;;5048400;28;20040;-57
2021/11/13 01:47:38;;;;;;;29.25;20.05;;;3.70;99.90;;;;;;5086331;28;20077;-60
2021/11/13 01:50:35;;;;;;;28.17;18.85;;;3.80;99.90;;;;;;5073840;28;20016;-58
2021/11/13 01:53:01;;;;;;;25.98;17.98;;;3.80;99.90;;;;;;5069681;28;20032;-56
2021/11/13 01:55:29;;;;;;;26.17;18.58;;;3.80;99.90;;;;;;5074440;28;20039;-57
2021/11/13 01:57:56;;;;;;;28.67;19.20;;;3.80;99.90;;;;;;5074604;28;20040;-53
2021/11/13 02:00:36;;;;;;;27.08;18.33;;;3.80;99.90;;;;;;5074090;28;20037;-54
2021/11/13 02:03:02;;;;;;;30.63;18.55;;;3.70;99.90;;;;;;5074685;28;20068;-56
2021/11/13 02:05:28;;;;;;;26.13;18.50;;;3.70;99.90;;;;;;5072650;28;20047;-58
2021/11/13 02:07:54;;;;;;;29.02;19.20;;;3.80;99.90;;;;;;5074271;28;20463;-57
2021/11/13 02:10:20;;;;;;;26.17;18.40;;;3.80;99.90;;;;;;5073361;28;20057;-55
2021/11/13 02:12:46;;;;;;;25.83;18.98;;;3.70;99.90;;;;;;5073870;28;20064;-55
2021/11/13 02:15:13;;;;;;;27.75;19.67;;;3.70;99.90;;;;;;5072299;28;20044;-56
2021/11/13 02:17:39;;;;;;;25.38;17.77;;;3.80;99.90;;;;;;5038383;28;1044325;-60
2021/11/13 02:20:21;;;;;;;25.27;17.98;;;3.80;99.90;;;;;;5072676;28;20012;-55
2021/11/13 02:22:49;;;;;;;27.25;18.85;;;3.90;99.90;;;;;;5055016;28;20032;-56
2021/11/13 02:25:17;;;;;;;28.88;19.00;;;3.90;99.90;;;;;;5054054;28;20112;-55
2021/11/13 02:27:43;;;;;;;26.67;19.73;;;3.90;99.90;;;;;;5054715;28;20021;-58
2021/11/13 02:30:10;;;;;;;28.45;19.70;;;3.90;99.90;;;;;;5054875;28;20021;-57
2021/11/13 02:32:36;;;;;;;28.02;18.40;;;4.00;99.90;;;;;;5054781;28;20029;-57
2021/11/13 02:35:02;;;;;;;26.95;19.33;;;4.00;99.90;;;;;;5054827;28;20048;-54
2021/11/13 02:37:28;;;;;;;25.90;19.25;;;4.10;99.90;;;;;;5054565;28;20056;-57
2021/11/13 02:39:54;;;;;;;26.05;17.88;;;4.00;99.90;;;;;;5037166;28;20511;-58
2021/11/13 02:42:22;;;;;;;26.25;18.50;;;4.10;99.90;;;;;;5053210;28;20032;-56
2021/11/13 02:44:49;;;;;;;23.70;17.35;;;4.20;99.90;;;;;;5054806;28;20067;-55
2021/11/13 02:47:17;;;;;;;26.63;18.88;;;4.20;99.90;;;;;;5053998;28;20037;-58
2021/11/13 02:49:45;;;;;;;23.52;17.02;;;4.20;99.90;;;;;;5054206;28;20540;-59
2021/11/13 02:52:11;;;;;;;22.73;16.70;;;4.20;99.90;;;;;;5054237;28;20084;-58
2021/11/13 02:54:45;;;;;;;24.98;18.85;;;4.20;99.90;;;;;;5053097;28;20064;-60
2021/11/13 02:57:11;;;;;;;24.10;17.92;;;4.20;99.90;;;;;;5053157;28;20656;-56
2021/11/13 02:59:48;;;;;;;23.60;17.17;;;4.20;99.90;;;;;;5052696;28;20045;-57
2021/11/13 03:02:14;;;;;;;23.48;17.55;;;4.20;99.90;;;;;;5054089;28;20082;-58
2021/11/13 03:04:40;;;;;;;23.30;17.75;;;4.20;99.90;;;;;;5054435;28;20037;-56
2021/11/13 03:07:09;;;;;;;24.67;17.23;;;4.20;99.90;;;;;;5053622;28;20393;-56
2021/11/13 03:09:37;;;;;;;25.13;17.80;;;4.20;99.90;;;;;;5053433;28;20151;-53
2021/11/13 03:12:03;;;;;;;25.17;18.15;;;4.20;99.90;;;;;;5053608;28;20025;-56
2021/11/13 03:14:29;;;;;;;22.70;17.45;;;4.10;99.90;;;;;;5053739;28;20112;-56
2021/11/13 03:17:02;;;;;;;26.85;16.95;;;4.10;99.90;;;;;;5053435;28;20036;-57
2021/11/13 03:19:28;;;;;;;23.88;18.20;;;4.20;99.90;;;;;;5052360;28;20105;-59
2021/11/13 03:21:54;;;;;;;22.88;17.42;;;4.20;99.90;;;;;;5051950;28;20033;-57
2021/11/13 03:24:21;;;;;;;24.33;17.83;;;4.20;99.90;;;;;;5053507;28;20576;-54
2021/11/13 03:26:48;;;;;;;24.17;17.13;;;4.20;99.90;;;;;;5052045;28;20033;-59
2021/11/13 03:29:20;;;;;;;22.23;15.57;;;4.30;99.90;;;;;;5053832;28;20021;-55
2021/11/13 03:31:47;;;;;;;22.77;16.52;;;4.50;99.90;;;;;;5051657;28;20041;-58
2021/11/13 03:34:13;;;;;;;24.48;17.55;;;4.50;99.90;;;;;;5053563;28;20040;-59
2021/11/13 03:36:39;;;;;;;23.17;16.63;;;4.40;99.90;;;;;;5041488;28;20053;-56
2021/11/13 03:39:06;;;;;;;22.38;16.98;;;4.50;99.90;;;;;;5033245;28;20038;-62
2021/11/13 03:41:32;;;;;;;22.77;17.30;;;4.60;99.90;;;;;;5031906;28;20029;-55
2021/11/13 03:43:59;;;;;;;22.88;17.48;;;4.60;99.90;;;;;;5034095;28;20146;-53
2021/11/13 03:46:25;;;;;;;24.58;17.50;;;4.40;99.90;;;;;;5033352;28;20040;-61
2021/11/13 03:48:52;;;;;;;24.65;18.00;;;4.40;99.90;;;;;;5051950;28;20048;-62
2021/11/13 03:51:19;;;;;;;22.00;16.95;;;4.40;99.90;;;;;;5053191;28;20037;-57
2021/11/13 03:53:45;;;;;;;25.05;17.45;;;4.30;99.90;;;;;;5050126;28;20421;-60
2021/11/13 03:56:10;;;;;;;24.13;17.52;;;4.30;99.90;;;;;;5052408;28;20086;-58
2021/11/13 03:58:36;;;;;;;21.75;16.08;;;4.30;99.90;;;;;;5053048;28;20397;-56
2021/11/13 04:01:02;;;;;;;20.95;16.10;;;4.40;99.90;;;;;;5052531;28;20392;-56
2021/11/13 04:03:28;;;;;;;24.48;17.27;;;4.40;99.90;;;;;;5053335;28;20037;-59
2021/11/13 04:05:53;;;;;;;20.02;15.27;;;4.40;99.90;;;;;;5052739;28;20369;-58
2021/11/13 04:08:19;;;;;;;21.95;16.48;;;4.60;99.90;;;;;;5052785;28;20041;-54
2021/11/13 04:10:44;;;;;;;21.10;16.40;;;4.50;99.90;;;;;;5052515;28;20029;-57
2021/11/13 04:13:10;;;;;;;21.45;16.50;;;4.50;99.90;;;;;;5050732;28;20033;-57
2021/11/13 04:15:36;;;;;;;20.55;15.73;;;4.60;99.90;;;;;;5051457;28;20082;-57
2021/11/13 04:18:02;;;;;;;25.08;17.35;;;4.60;99.90;;;;;;5052830;28;20045;-56
2021/11/13 04:20:28;;;;;;;20.45;15.65;;;4.60;99.90;;;;;;5053026;28;20442;-57
2021/11/13 04:22:53;;;;;;;20.92;16.42;;;4.60;99.90;;;;;;5052958;28;20133;-59
2021/11/13 04:25:21;;;;;;;20.10;15.38;;;4.60;99.90;;;;;;5052802;28;20025;-56
2021/11/13 04:27:48;;;;;;;20.73;15.93;;;4.60;99.90;;;;;;5053371;28;20435;-58
2021/11/13 04:30:15;;;;;;;20.25;16.00;;;4.60;99.90;;;;;;5051452;28;20123;-57
2021/11/13 04:32:43;;;;;;;20.92;15.43;;;4.60;99.90;;;;;;5052434;28;20122;-55
2021/11/13 04:35:23;;;;;;;22.15;15.88;;;4.60;99.90;;;;;;5052595;28;20033;-59
2021/11/13 04:37:56;;;;;;;19.50;14.48;;;4.60;99.90;;;;;;5033187;28;20033;-57
2021/11/13 04:40:32;;;;;;;19.50;15.88;;;4.60;99.90;;;;;;5033436;28;20054;-56
2021/11/13 04:42:57;;;;;;;19.38;15.15;;;4.70;99.90;;;;;;5032731;28;20030;-56
2021/11/13 04:45:23;;;;;;;21.77;15.85;;;4.60;99.90;;;;;;5032426;28;20121;-54
2021/11/13 04:47:49;;;;;;;19.45;15.73;;;4.70;99.90;;;;;;5032550;28;20492;-55
2021/11/13 04:50:17;;;;;;;19.83;14.85;;;4.60;99.90;;;;;;5032517;28;20033;-61
2021/11/13 04:52:44;;;;;;;21.90;16.33;;;4.60;99.90;;;;;;5055099;28;20111;-58
2021/11/13 04:55:11;;;;;;;22.33;15.93;;;4.70;99.90;;;;;;5072580;28;20043;-57
2021/11/13 04:57:37;;;;;;;21.63;15.20;;;4.60;99.90;;;;;;5070790;28;20468;-59
2021/11/13 05:00:06;;;;;;;24.20;16.50;;;4.70;99.90;;;;;;5072175;28;20082;-58
2021/11/13 05:02:32;;;;;;;22.45;15.95;;;4.70;99.90;;;;;;5072376;28;20028;-56
2021/11/13 05:04:57;;;;;;;20.65;16.33;;;4.70;99.90;;;;;;5071632;28;20028;-59
2021/11/13 05:07:23;;;;;;;21.85;15.65;;;4.80;99.90;;;;;;5072431;28;20032;-59
2021/11/13 05:09:51;;;;;;;23.00;16.08;;;4.70;99.90;;;;;;5073373;28;20492;-56
2021/11/13 05:12:16;;;;;;;23.50;16.80;;;4.80;99.90;;;;;;5076229;28;20028;-55
2021/11/13 05:14:42;;;;;;;22.25;16.45;;;4.80;99.90;;;;;;5075844;28;20539;-59
2021/11/13 05:17:08;;;;;;;22.60;15.45;;;4.80;99.90;;;;;;5036772;28;20052;-57
2021/11/13 05:19:33;;;;;;;20.45;14.68;;;4.80;99.90;;;;;;5035780;28;20037;-54
2021/11/13 05:22:00;;;;;;;21.98;15.60;;;4.80;99.90;;;;;;5053740;28;20385;-61
2021/11/13 05:24:25;;;;;;;21.35;16.00;;;4.80;99.90;;;;;;5055404;28;20408;-59
2021/11/13 05:26:51;;;;;;;23.33;16.70;;;4.80;99.90;;;;;;5056507;28;20091;-58
2021/11/13 05:29:16;;;;;;;24.50;17.30;;;4.90;99.90;;;;;;5038225;28;20236;-56
2021/11/13 05:31:42;;;;;;;21.13;15.48;;;4.80;99.90;;;;;;5037452;28;20033;-57
2021/11/13 05:34:08;;;;;;;20.75;16.30;;;4.80;99.90;;;;;;5055109;28;20075;-60
2021/11/13 05:36:33;;;;;;;19.83;15.63;;;4.80;99.90;;;;;;5055716;28;20496;-59
2021/11/13 05:38:59;;;;;;;21.58;15.85;;;4.80;99.90;;;;;;5055510;28;20111;-62
2021/11/13 05:41:24;;;;;;;24.27;16.65;;;4.80;99.90;;;;;;5054837;28;20033;-58
2021/11/13 05:43:50;;;;;;;21.15;16.42;;;4.80;99.90;;;;;;5055649;28;20033;-53
2021/11/13 05:46:16;;;;;;;21.92;16.45;;;4.80;99.90;;;;;;5055304;28;20158;-60
2021/11/13 05:48:42;;;;;;;23.92;16.15;;;4.90;99.90;;;;;;5056180;28;20540;-54
2021/11/13 05:51:08;;;;;;;20.42;15.52;;;4.80;99.90;;;;;;5054645;28;20037;-55
2021/11/13 05:53:34;;;;;;;20.85;15.48;;;4.90;99.90;;;;;;5055681;28;20489;-58
2021/11/13 05:56:00;;;;;;;22.33;16.17;;;4.80;99.90;;;;;;5054886;28;20480;-58
2021/11/13 05:58:26;;;;;;;23.15;17.25;;;4.80;99.90;;;;;;5055231;28;20036;-57
2021/11/13 06:00:51;;;;;;;21.98;15.27;;;4.90;99.90;;;;;;5054779;28;20116;-55
2021/11/13 06:03:17;;;;;;;21.70;16.13;;;4.90;99.90;;;;;;5054883;28;20028;-56
2021/11/13 06:05:43;;;;;;;23.27;16.05;;;4.90;99.90;;;;;;5056118;28;20370;-56
2021/11/13 06:08:10;;;;;;;22.30;16.33;;;4.90;99.90;;;;;;5056570;28;20032;-58
2021/11/13 06:10:36;;;;;;;21.25;15.73;;;4.90;99.90;;;;;;5057592;28;20033;-57
2021/11/13 06:13:02;;;;;;;23.40;17.42;;;4.90;99.90;;;;;;5056148;28;20064;-54
2021/11/13 06:15:27;;;;;;;21.50;16.23;;;4.90;99.90;;;;;;5055703;28;20094;-58
2021/11/13 06:17:53;;;;;;;23.27;17.00;;;4.90;99.90;;;;;;5054877;28;20070;-58
2021/11/13 06:20:18;;;;;;;21.90;15.65;;;4.90;99.90;;;;;;5053130;28;20032;-59
2021/11/13 06:22:44;;;;;;;21.23;16.05;;;5.00;99.90;;;;;;5054132;28;20029;-57
2021/11/13 06:25:10;;;;;;;22.00;15.43;;;5.00;99.90;;;;;;5055267;28;20055;-53
2021/11/13 06:27:37;;;;;;;23.27;16.13;;;5.00;99.90;;;;;;5054962;28;20118;-58
2021/11/13 06:30:05;;;;;;;21.98;16.42;;;5.00;99.90;;;;;;5053391;28;20025;-60
2021/11/13 06:32:31;;;;;;;20.85;15.68;;;5.00;99.90;;;;;;5054459;28;20037;-60
2021/11/13 06:34:58;;;;;;;21.17;16.30;;;5.10;99.90;;;;;;5055026;28;20104;-56
2021/11/13 06:37:24;;;;;;;22.52;16.45;;;5.10;99.90;;;;;;5054368;28;20041;-59
2021/11/13 06:39:49;;;;;;;21.70;16.15;;;5.10;99.90;;;;;;5053256;28;20055;-57
2021/11/13 06:42:15;;;;;;;22.83;16.10;;;5.00;99.90;;;;;;5037105;28;20029;-57
2021/11/13 06:44:40;;;;;;;21.55;15.55;;;5.00;99.90;;;;;;5054294;28;20040;-57
2021/11/13 06:47:06;;;;;;;33.30;21.33;;;5.10;99.90;;;;;;5053733;28;20492;-55
2021/11/13 06:49:32;;;;;;;21.05;15.35;;;5.10;99.90;;;;;;5053651;28;20024;-55
2021/11/13 06:51:57;;;;;;;22.60;16.52;;;5.10;99.90;;;;;;5049414;28;20040;-60
2021/11/13 06:54:23;;;;;;;21.23;16.52;;;5.10;99.90;;;;;;5034296;28;20025;-57
2021/11/13 06:56:49;;;;;;;22.13;16.08;;;5.20;99.90;;;;;;5033854;28;20047;-57
2021/11/13 06:59:15;;;;;;;23.48;15.15;;;5.20;99.90;;;;;;5033714;28;20040;-58
2021/11/13 07:01:40;;;;;;;21.05;16.02;;;5.20;99.90;;;;;;5032327;28;20045;-54
2021/11/13 07:04:06;;;;;;;21.80;15.70;;;5.30;99.90;;;;;;5034456;28;20057;-56
2021/11/13 07:06:32;;;;;;;20.13;15.68;;;5.30;99.90;;;;;;5034888;28;20044;-57
2021/11/13 07:08:57;;;;;;;21.60;16.20;;;5.30;99.90;;;;;;5053543;28;20047;-56
2021/11/13 07:11:23;;;;;;;24.52;17.05;;;5.30;99.90;;;;;;5053400;28;20033;-56
2021/11/13 07:13:48;;;;;;;22.70;15.85;;;5.30;99.90;;;;;;5052122;28;20041;-59
2021/11/13 07:16:14;;;;;;;21.92;16.15;;;5.20;99.90;;;;;;5053386;28;20094;-54
2021/11/13 07:18:40;;;;;;;20.23;15.60;;;5.20;99.90;;;;;;5053410;28;20033;-57
2021/11/13 07:21:07;;;;;;;20.83;15.75;;;5.20;99.90;;;;;;5053133;28;20380;-52
2021/11/13 07:23:34;;;;;;;21.67;15.73;;;5.20;99.90;;;;;;5053849;28;20155;-57
2021/11/13 07:26:03;;;;;;;19.58;15.52;;;5.20;99.90;;;;;;5053386;28;20473;-56
2021/11/13 07:28:39;;;;;;;23.25;16.30;;;5.20;99.90;;;;;;5054194;28;20098;-56
2021/11/13 07:31:06;;;;;;;22.02;16.27;;;5.20;99.90;;;;;;5052940;28;20028;-61
2021/11/13 07:33:31;;;;;;;20.90;15.73;;;5.20;99.90;;;;;;5052586;28;20167;-55
2021/11/13 07:35:57;;;;;;;22.33;16.23;;;5.20;99.90;;;;;;5053089;28;20075;-56
2021/11/13 07:38:23;;;;;;;28.65;18.77;;;5.20;99.90;;;;;;5037389;28;20388;-59
2021/11/13 07:40:48;;;;;;;24.15;17.92;;;5.30;99.90;;;;;;5032116;28;20029;-60
2021/11/13 07:43:14;;;;;;;20.63;16.05;;;5.30;99.90;;;;;;5033254;28;20037;-54
2021/11/13 07:45:40;;;;;;;21.27;16.35;;;5.30;99.90;;;;;;5033346;28;20029;-60
2021/11/13 07:48:07;;;;;;;22.17;14.88;;;5.30;99.90;;;;;;5034084;28;20025;-55
2021/11/13 07:50:35;;;;;;;20.10;15.02;;;5.40;99.90;;;;;;5048910;28;20087;-60
2021/11/13 07:53:05;;;;;;;19.92;15.18;;;5.40;99.90;;;;;;5066551;28;20068;-60
2021/11/13 07:55:30;;;;;;;19.10;14.88;;;5.40;99.90;;;;;;5073411;28;20032;-58
2021/11/13 07:57:56;;;;;;;20.65;15.48;;;5.40;99.90;;;;;;5072476;28;20036;-57
2021/11/13 08:00:22;;;;;;;19.13;14.63;;;5.50;99.90;;;;;;5073739;28;20483;-55
2021/11/13 08:02:48;;;;;;;19.67;14.73;;;5.50;99.90;;;;;;5073707;28;20036;-57
2021/11/13 08:05:15;;;;;;;22.35;16.00;;;5.40;99.90;;;;;;5073308;28;20369;-56
2021/11/13 08:07:42;;;;;;;18.90;14.45;;;5.60;99.90;;;;;;5073045;28;20058;-59
2021/11/13 08:10:08;;;;;;;17.92;13.77;;;5.60;99.90;;;;;;5072826;28;20032;-58
2021/11/13 08:12:34;;;;;;;21.48;14.85;;;5.70;99.90;;;;;;5059877;28;20072;-57
2021/11/13 08:15:00;;;;;;;19.23;13.68;;;5.70;99.90;;;;;;5043764;28;20056;-57
2021/11/13 08:17:26;;;;;;;19.85;14.75;;;5.70;99.90;;;;;;5032593;28;20041;-55
2021/11/13 08:19:51;;;;;;;19.27;14.00;;;5.70;99.90;;;;;;5032203;28;20037;-57
2021/11/13 08:22:17;;;;;;;21.23;15.30;;;5.70;99.90;;;;;;5046395;28;20036;-58
2021/11/13 08:24:43;;;;;;;18.42;14.13;;;5.70;99.90;;;;;;5052216;28;20033;-56
2021/11/13 08:27:09;;;;;;;18.92;14.32;;;5.70;99.90;;;;;;5052000;28;20048;-56
2021/11/13 08:29:35;;;;;;;18.13;15.10;;;5.80;99.90;;;;;;5051365;28;20071;-57
2021/11/13 08:32:01;;;;;;;19.88;14.85;;;5.80;99.90;;;;;;5052871;28;20025;-57
2021/11/13 08:34:26;;;;;;;18.40;14.07;;;5.90;99.90;;;;;;5052712;28;20059;-60
2021/11/13 08:36:52;;;;;;;17.80;14.73;;;6.00;99.90;;;;;;5052353;28;20043;-60
2021/11/13 08:39:18;;;;;;;18.40;13.35;;;5.90;99.90;;;;;;5034363;28;20053;-60
2021/11/13 08:41:44;;;;;;;17.02;12.82;;;6.00;99.90;;;;;;5052082;28;20192;-61
2021/11/13 08:44:10;;;;;;;17.33;13.38;;;6.00;99.90;;;;;;5052515;28;20405;-58
2021/11/13 08:46:35;;;;;;;17.10;13.40;;;6.00;99.90;;;;;;5054914;28;20033;-57
2021/11/13 08:49:03;;;;;;;18.73;14.25;;;6.00;99.90;;;;;;5055216;28;20029;-62
2021/11/13 08:51:29;;;;;;;18.10;13.20;;;6.00;99.90;;;;;;5054737;28;20025;-61
2021/11/13 08:53:54;;;;;;;19.60;14.25;;;6.00;99.90;;;;;;5048677;28;20048;-60
2021/11/13 08:56:26;;;;;;;18.42;13.75;;;6.00;99.90;;;;;;5037599;28;20033;-62
2021/11/13 08:58:53;;;;;;;18.27;12.98;;;6.10;99.90;;;;;;5055673;28;20091;-59
2021/11/13 09:01:21;;;;;;;16.65;13.38;;;6.10;99.90;;;;;;5049372;28;20063;-60
2021/11/13 09:03:47;;;;;;;18.52;13.07;;;6.10;99.90;;;;;;5035877;28;20049;-58
2021/11/13 09:06:21;;;;;;;16.63;12.85;;;6.20;99.90;;;;;;5035907;28;20397;-60
2021/11/13 09:08:48;;;;;;;19.93;13.63;;;6.20;99.90;;;;;;5036638;28;20042;-59
2021/11/13 09:11:21;;;;;;;15.25;12.68;;;6.30;99.90;;;;;;5053703;28;20794;-61
2021/11/13 09:13:54;;;;;;;19.27;12.95;;;6.30;99.90;;;;;;5042645;28;20041;-58
2021/11/13 09:16:20;;;;;;;14.48;11.52;;;6.40;99.90;;;;;;5054244;28;20056;-58
2021/11/13 09:18:46;;;;;;;16.17;12.48;;;6.50;99.90;;;;;;5055354;28;20033;-59
2021/11/13 09:21:13;;;;;;;15.80;12.60;;;6.50;99.90;;;;;;5055135;28;20021;-61
2021/11/13 09:23:40;;;;;;;15.48;12.35;;;6.60;99.90;;;;;;5055743;28;20459;-61
2021/11/13 09:26:06;;;;;;;16.05;12.93;;;6.60;99.90;;;;;;5055724;28;20032;-60
2021/11/13 09:28:33;;;;;;;16.90;12.10;;;6.70;99.90;;;;;;5053516;28;20069;-60
2021/11/13 09:31:00;;;;;;;16.95;12.18;;;6.60;99.90;;;;;;5054714;28;20090;-54
2021/11/13 09:33:27;;;;;;;16.20;12.75;;;6.70;99.90;;;;;;5054856;28;20060;-61
2021/11/13 09:35:53;;;;;;;18.45;12.68;;;6.80;99.90;;;;;;5053863;28;20036;-62
2021/11/13 09:38:21;;;;;;;16.00;12.10;;;6.90;99.90;;;;;;5055561;28;20377;-62
2021/11/13 09:40:47;;;;;;;14.18;12.18;;;6.90;99.90;;;;;;5055632;28;20503;-61
2021/11/13 09:43:13;;;;;;;15.00;12.38;;;6.80;99.90;;;;;;5054816;28;20035;-58
2021/11/13 09:45:38;;;;;;;15.02;12.13;;;6.70;99.90;;;;;;5053729;28;20158;-59
2021/11/13 09:48:05;;;;;;;16.33;11.70;;;6.80;99.90;;;;;;5053999;28;20033;-58
2021/11/13 09:50:35;;;;;;;15.60;11.85;;;6.80;99.90;;;;;;5053493;28;20060;-59
2021/11/13 09:53:01;;;;;;;16.52;11.63;;;6.90;99.90;;;;;;5055354;28;20099;-61
2021/11/13 09:55:27;;;;;;;16.85;12.48;;;6.90;99.90;;;;;;5053338;28;20033;-60
2021/11/13 09:57:54;;;;;;;15.60;12.38;;;6.90;99.90;;;;;;5053608;28;20056;-59
2021/11/13 10:00:23;;;;;;;15.57;12.05;;;7.00;99.90;;;;;;5051521;28;20033;-62
2021/11/13 10:02:49;;;;;;;17.20;12.50;;;7.10;99.90;;;;;;5033507;28;20041;-61
2021/11/13 10:05:15;;;;;;;20.38;14.38;;;7.10;99.90;;;;;;5033472;28;20447;-57
2021/11/13 10:07:42;;;;;;;16.83;11.32;;;7.10;99.90;;;;;;5048149;28;20040;-60
2021/11/13 10:10:10;;;;;;;14.45;11.85;;;7.20;99.90;;;;;;5049077;28;20136;-57
2021/11/13 10:12:37;;;;;;;20.80;12.80;;;7.30;99.90;;;;;;5044620;28;20037;-57
2021/11/13 10:15:25;;;;;;;16.25;12.43;;;7.20;99.90;;;;;;5038314;28;20472;-61
2021/11/13 10:18:13;;;;;;;16.25;12.10;;;7.30;99.90;;;;;;5045268;28;20025;-58
2021/11/13 10:20:57;;;;;;;14.35;11.55;;;7.30;99.90;;;;;;5049727;28;20037;-59
2021/11/13 10:23:25;;;;;;;18.02;12.35;;;7.40;99.90;;;;;;5041861;28;20021;-57
2021/11/13 10:26:01;;;;;;;16.70;12.90;;;7.40;99.90;;;;;;5040857;28;20052;-58
2021/11/13 10:28:31;;;;;;;15.23;12.40;;;7.40;99.90;;;;;;5033395;28;20033;-61
2021/11/13 10:31:09;;;;;;;16.45;12.27;;;7.40;99.90;;;;;;5044000;28;20732;-61
2021/11/13 10:33:35;;;;;;;14.10;11.80;;;7.30;99.90;;;;;;5047816;28;20032;-60
2021/11/13 10:36:02;;;;;;;14.63;12.30;;;7.40;99.90;;;;;;5053066;28;20388;-61
2021/11/13 10:38:27;;;;;;;14.25;11.95;;;7.50;99.90;;;;;;5052926;28;20528;-60
2021/11/13 10:40:56;;;;;;;15.77;12.68;;;7.40;99.90;;;;;;5051531;28;20044;-59
2021/11/13 10:43:35;;;;;;;15.48;12.93;;;7.50;99.90;;;;;;5051750;28;20037;-58
2021/11/13 10:46:16;;;;;;;17.17;12.90;;;7.60;99.90;;;;;;5052669;28;20044;-60
2021/11/13 10:48:49;;;;;;;19.17;14.40;;;7.60;99.90;;;;;;5053100;28;20024;-61
2021/11/13 10:51:21;;;;;;;15.98;12.10;;;7.80;99.90;;;;;;5051449;28;20643;-58
2021/11/13 10:53:48;;;;;;;16.95;12.85;;;7.90;99.90;;;;;;5033618;28;20067;-68
2021/11/13 10:56:15;;;;;;;15.75;12.00;;;8.00;99.90;;;;;;5031578;28;20116;-66
2021/11/13 10:58:50;;;;;;;16.08;12.00;;;8.10;99.90;;;;;;5033129;28;20029;-68
2021/11/13 11:01:33;;;;;;;14.90;12.10;;;8.20;99.90;;;;;;5032696;28;20033;-60
2021/11/13 11:04:28;;;;;;;16.63;12.98;;;8.20;99.90;;;;;;5032920;28;20110;-60
2021/11/13 11:07:09;;;;;;;15.43;11.82;;;8.40;99.90;;;;;;5039002;28;20029;-59
2021/11/13 11:09:56;;;;;;;17.08;11.95;;;8.40;99.90;;;;;;5052009;28;20048;-59
2021/11/13 11:12:26;;;;;;;15.57;12.70;;;8.50;99.90;;;;;;5052339;28;20076;-61
2021/11/13 11:14:53;;;;;;;16.35;12.32;;;8.60;99.90;;;;;;5052145;28;20128;-59
2021/11/13 11:17:22;;;;;;;16.13;11.88;;;8.50;99.90;;;;;;5033995;28;20041;-62
2021/11/13 11:19:51;;;;;;;16.15;12.82;;;8.60;99.90;;;;;;5051882;28;20041;-63
2021/11/13 11:22:23;;;;;;;17.70;12.70;;;8.60;99.90;;;;;;5051968;28;20025;-62
2021/11/13 11:25:00;;;;;;;16.83;12.85;;;8.80;99.90;;;;;;5051077;28;20178;-62
2021/11/13 11:27:36;;;;;;;17.10;12.35;;;8.80;99.90;;;;;;5049682;28;20028;-61
2021/11/13 11:30:08;;;;;;;15.73;12.35;;;8.90;99.90;;;;;;5038054;28;20029;-60
2021/11/13 11:32:43;;;;;;;16.73;13.10;;;9.00;99.90;;;;;;5048957;28;20025;-62
2021/11/13 11:35:30;;;;;;;19.80;15.00;;;9.00;99.90;;;;;;5052179;28;20075;-60
2021/11/13 11:38:06;;;;;;;18.70;14.65;;;9.20;99.90;;;;;;5057499;28;20036;-60
2021/11/13 11:40:39;;;;;;;16.75;13.23;;;9.20;99.90;;;;;;5071707;28;20056;-56
2021/11/13 11:43:05;;;;;;;17.20;13.50;;;9.20;99.90;;;;;;5071929;28;20040;-62
2021/11/13 11:45:37;;;;;;;18.35;13.30;;;9.20;99.90;;;;;;5053204;28;20086;-61
2021/11/13 11:48:07;;;;;;;16.92;13.02;;;9.10;99.90;;;;;;5051814;28;20033;-62
2021/11/13 11:50:33;;;;;;;17.58;13.25;;;9.10;99.90;;;;;;5050227;28;20029;-60
2021/11/13 11:53:10;;;;;;;17.42;13.40;;;9.20;99.90;;;;;;5051614;28;20150;-60
2021/11/13 11:55:42;;;;;;;15.90;12.13;;;9.20;99.90;;;;;;5051674;28;20468;-61
2021/11/13 11:58:12;;;;;;;17.63;13.23;;;9.30;99.90;;;;;;5051626;28;20096;-59
2021/11/13 12:00:40;;;;;;;16.52;12.88;;;9.30;99.90;;;;;;5050967;28;20084;-60
2021/11/13 12:03:06;;;;;;;18.02;13.30;;;9.30;99.90;;;;;;5041889;28;20388;-58
2021/11/13 12:05:37;;;;;;;16.55;12.52;;;9.20;99.90;;;;;;5051427;28;20033;-62
2021/11/13 12:08:21;;;;;;;16.88;13.68;;;9.30;99.90;;;;;;5056528;28;20055;-62
2021/11/13 12:10:48;;;;;;;19.95;14.45;;;9.30;99.90;;;;;;5031483;28;20041;-58
2021/11/13 12:13:25;;;;;;;17.33;13.20;;;9.40;99.90;;;;;;5030340;28;20087;-60
2021/11/13 12:15:58;;;;;;;16.45;12.35;;;9.50;99.90;;;;;;5031706;28;20139;-58
2021/11/13 12:18:29;;;;;;;17.25;13.57;;;9.70;99.90;;;;;;5035213;28;20419;-59
2021/11/13 12:21:09;;;;;;;16.33;11.55;;;9.80;99.90;;;;;;5055360;28;20029;-61
2021/11/13 12:23:38;;;;;;;20.52;12.63;;;9.80;99.90;;;;;;5055404;28;20388;-58
2021/11/13 12:26:13;;;;;;;18.27;12.73;;;10.00;99.90;;;;;;5054488;28;20481;-56
2021/11/13 12:28:44;;;;;;;17.77;12.60;;;10.00;99.90;;;;;;5056117;28;20033;-59
2021/11/13 12:31:25;;;;;;;16.40;11.32;;;10.10;99.80;;;;;;5056212;28;20033;-60
2021/11/13 12:33:55;;;;;;;16.73;11.48;;;10.10;99.70;;;;;;5058226;28;20047;-62
2021/11/13 12:36:24;;;;;;;13.70;10.95;;;10.00;99.70;;;;;;5051334;28;20024;-60
2021/11/13 12:38:55;;;;;;;16.30;11.15;;;9.90;99.80;;;;;;5070540;28;20036;-60